createdAt,value
2019-03-29T00:01:01.759Z,99830.19
2019-03-29T00:03:31.382Z,99836.66
2019-03-29T00:06:01.000Z,99836.38
2019-03-29T00:08:30.644Z,99832.56
2019-03-29T00:11:00.262Z,99839.45
2019-03-29T00:13:29.892Z,99830.11
2019-03-29T00:16:00.075Z,99829.88
2019-03-29T00:18:30.007Z,99828.03
2019-03-29T00:20:59.625Z,99829.98
2019-03-29T00:23:29.233Z,99826.05
2019-03-29T00:25:59.085Z,99826.67
2019-03-29T00:28:28.969Z,99832.00
2019-03-29T00:30:58.614Z,99826.34
2019-03-29T00:33:28.229Z,99825.41
2019-03-29T00:35:57.863Z,99824.69
2019-03-29T00:38:27.476Z,99814.74
2019-03-29T00:40:57.120Z,99817.70
2019-03-29T00:43:26.733Z,99819.75
2019-03-29T00:45:56.370Z,99822.50
2019-03-29T00:48:25.997Z,99816.77
2019-03-29T00:50:55.707Z,99817.55
2019-03-29T00:53:25.327Z,99818.89
2019-03-29T00:55:55.045Z,99825.13
2019-03-29T00:58:24.662Z,99821.05
2019-03-29T01:00:54.270Z,99822.28
2019-03-29T01:03:23.911Z,99828.94
2019-03-29T01:05:53.519Z,99819.68
2019-03-29T01:08:23.159Z,99828.83
2019-03-29T01:10:52.770Z,99827.68
2019-03-29T01:13:22.481Z,99822.67
2019-03-29T01:15:52.165Z,99821.38
2019-03-29T01:18:21.798Z,99816.22
2019-03-29T01:20:51.414Z,99818.38
2019-03-29T01:23:21.053Z,99810.45
2019-03-29T01:25:50.665Z,99804.51
2019-03-29T01:28:20.300Z,99807.68
2019-03-29T01:30:49.912Z,99801.48
2019-03-29T01:33:19.567Z,99799.72
2019-03-29T01:35:49.186Z,99799.11
2019-03-29T01:38:22.078Z,99794.20
2019-03-29T01:40:50.447Z,99787.53
2019-03-29T01:43:20.064Z,99796.87
2019-03-29T01:45:49.978Z,99785.55
2019-03-29T01:48:19.588Z,99792.04
2019-03-29T01:50:49.232Z,99790.70
2019-03-29T01:53:18.842Z,99793.55
2019-03-29T01:55:48.901Z,99796.22
2019-03-29T01:58:18.783Z,99795.32
2019-03-29T02:00:48.419Z,99792.15
2019-03-29T02:03:18.030Z,99787.93
2019-03-29T02:05:47.681Z,99788.04
2019-03-29T02:08:17.300Z,99787.03
2019-03-29T02:10:47.007Z,99785.38
2019-03-29T02:13:16.624Z,99782.92
2019-03-29T02:15:46.254Z,99782.63
2019-03-29T02:18:15.875Z,99777.69
2019-03-29T02:20:45.521Z,99770.91
2019-03-29T02:23:15.149Z,99774.81
2019-03-29T02:25:44.777Z,99770.41
2019-03-29T02:28:14.397Z,99771.42
2019-03-29T02:30:44.039Z,99768.36
2019-03-29T02:33:13.669Z,99769.37
2019-03-29T02:36:41.025Z,99771.53
2019-03-29T02:39:10.642Z,99768.76
2019-03-29T02:41:40.285Z,99770.27
2019-03-29T02:44:09.970Z,99775.72
2019-03-29T02:46:39.618Z,99771.80
2019-03-29T02:49:09.252Z,99773.34
2019-03-29T02:51:39.183Z,99771.90
2019-03-29T02:54:08.791Z,99770.02
2019-03-29T02:56:38.413Z,99773.41
2019-03-29T02:59:08.052Z,99774.74
2019-03-29T03:01:37.671Z,99774.74
2019-03-29T03:04:07.308Z,99770.81
2019-03-29T03:06:36.921Z,99771.03
2019-03-29T03:09:13.854Z,99777.36
2019-03-29T03:11:38.817Z,99771.92
2019-03-29T03:14:08.460Z,99772.10
2019-03-29T03:16:38.070Z,99773.22
2019-03-29T03:19:07.709Z,99774.05
2019-03-29T03:21:37.330Z,99774.16
2019-03-29T03:24:07.221Z,99774.98
2019-03-29T03:26:36.791Z,99778.16
2019-03-29T03:29:06.511Z,99768.61
2019-03-29T03:31:36.127Z,99764.61
2019-03-29T03:34:05.895Z,99765.26
2019-03-29T03:36:35.521Z,99762.38
2019-03-29T03:39:08.629Z,99765.88
2019-03-29T03:41:38.407Z,99770.99
2019-03-29T03:44:08.070Z,99759.83
2019-03-29T03:46:37.710Z,99764.05
2019-03-29T03:49:07.329Z,99763.03
2019-03-29T03:51:37.383Z,99764.27
2019-03-29T03:54:07.469Z,99761.20
2019-03-29T03:56:38.259Z,99762.92
2019-03-29T03:59:08.589Z,99756.33
2019-03-29T04:01:38.308Z,99755.44
2019-03-29T04:04:07.924Z,99756.95
2019-03-29T04:06:37.559Z,99760.44
2019-03-29T04:09:07.681Z,99755.75
2019-03-29T04:11:37.342Z,99761.88
2019-03-29T04:14:06.971Z,99757.59
2019-03-29T04:16:36.576Z,99762.60
2019-03-29T04:19:06.218Z,99756.59
2019-03-29T04:21:35.837Z,99758.82
2019-03-29T04:24:05.548Z,99756.84
2019-03-29T04:26:35.167Z,99757.27
2019-03-29T04:29:05.424Z,99760.22
2019-03-29T04:31:35.219Z,99752.72
2019-03-29T04:34:04.930Z,99751.67
2019-03-29T04:36:34.554Z,99753.72
2019-03-29T04:39:05.237Z,99744.47
2019-03-29T04:41:34.863Z,99754.73
2019-03-29T04:44:04.714Z,99751.95
2019-03-29T04:46:34.412Z,99751.62
2019-03-29T04:49:04.051Z,99750.03
2019-03-29T04:51:33.669Z,99752.19
2019-03-29T04:54:03.408Z,99758.31
2019-03-29T04:56:33.889Z,99753.06
2019-03-29T04:59:03.557Z,99755.36
2019-03-29T05:01:33.250Z,99761.08
2019-03-29T05:04:02.883Z,99759.31
2019-03-29T05:06:32.534Z,99767.39
2019-03-29T05:09:02.221Z,99763.40
2019-03-29T05:11:31.867Z,99765.30
2019-03-29T05:14:01.487Z,99761.30
2019-03-29T05:16:31.144Z,99754.97
2019-03-29T05:19:00.761Z,99755.86
2019-03-29T05:21:30.408Z,99760.19
2019-03-29T05:24:00.027Z,99757.91
2019-03-29T05:26:29.674Z,99763.63
2019-03-29T05:28:59.298Z,99751.84
2019-03-29T05:31:28.944Z,99757.67
2019-03-29T05:33:58.624Z,99758.18
2019-03-29T05:36:28.284Z,99753.18
2019-03-29T05:38:57.906Z,99753.80
2019-03-29T05:41:27.549Z,99755.13
2019-03-29T05:43:57.216Z,99756.55
2019-03-29T05:46:27.105Z,99750.81
2019-03-29T05:48:56.792Z,99752.23
2019-03-29T05:51:26.414Z,99756.44
2019-03-29T05:53:56.067Z,99756.55
2019-03-29T05:56:25.684Z,99761.78
2019-03-29T05:58:55.330Z,99759.13
2019-03-29T06:01:24.944Z,99756.13
2019-03-29T06:03:54.670Z,99757.89
2019-03-29T06:06:24.287Z,99753.41
2019-03-29T06:08:53.931Z,99757.52
2019-03-29T06:11:23.547Z,99750.36
2019-03-29T06:13:53.198Z,99752.30
2019-03-29T06:16:22.820Z,99755.30
2019-03-29T06:18:52.467Z,99763.40
2019-03-29T06:21:22.093Z,99759.41
2019-03-29T06:23:51.751Z,99762.09
2019-03-29T06:26:21.617Z,99764.68
2019-03-29T06:28:51.299Z,99759.03
2019-03-29T06:31:20.945Z,99763.35
2019-03-29T06:33:50.572Z,99754.17
2019-03-29T06:36:23.231Z,99761.95
2019-03-29T06:38:54.359Z,99762.73
2019-03-29T06:41:24.015Z,99752.69
2019-03-29T06:43:53.632Z,99754.34
2019-03-29T06:46:23.341Z,99759.28
2019-03-29T06:48:52.967Z,99761.77
2019-03-29T06:51:22.821Z,99756.62
2019-03-29T06:53:52.861Z,99759.75
2019-03-29T06:56:22.546Z,99770.92
2019-03-29T06:58:52.166Z,99761.20
2019-03-29T07:01:21.798Z,99761.81
2019-03-29T07:03:51.442Z,99755.36
2019-03-29T07:06:21.059Z,99757.20
2019-03-29T07:08:50.728Z,99760.38
2019-03-29T07:11:20.585Z,99761.92
2019-03-29T07:13:57.207Z,99758.86
2019-03-29T07:16:21.660Z,99757.13
2019-03-29T07:18:51.310Z,99758.48
2019-03-29T07:21:22.140Z,99758.67
2019-03-29T07:23:52.331Z,99749.45
2019-03-29T07:26:21.957Z,99747.42
2019-03-29T07:28:51.604Z,99748.33
2019-03-29T07:31:21.296Z,99742.00
2019-03-29T07:33:50.954Z,99747.34
2019-03-29T07:36:20.563Z,99745.39
2019-03-29T07:38:50.219Z,99745.57
2019-03-29T07:41:31.155Z,99749.09
2019-03-29T07:43:51.181Z,99742.72
2019-03-29T07:46:20.825Z,99739.75
2019-03-29T07:48:50.440Z,99730.22
2019-03-29T07:51:20.088Z,99727.64
2019-03-29T07:53:49.705Z,99735.76
2019-03-29T07:56:19.357Z,99730.22
2019-03-29T07:58:48.979Z,99740.69
2019-03-29T08:01:18.691Z,99733.39
2019-03-29T08:03:51.208Z,99735.13
2019-03-29T08:06:19.718Z,99739.36
2019-03-29T08:08:49.345Z,99739.77
2019-03-29T08:11:26.173Z,99728.78
2019-03-29T08:13:50.341Z,99723.33
2019-03-29T08:16:19.959Z,99730.28
2019-03-29T08:18:49.606Z,99730.19
2019-03-29T08:21:19.466Z,99728.91
2019-03-29T08:23:49.116Z,99729.84
2019-03-29T08:26:18.736Z,99721.73
2019-03-29T08:28:48.456Z,99726.34
2019-03-29T08:31:18.074Z,99727.54
2019-03-29T08:33:47.731Z,99715.97
2019-03-29T08:36:17.351Z,99718.92
2019-03-29T08:38:47.026Z,99722.93
2019-03-29T08:41:16.656Z,99720.72
2019-03-29T08:43:46.287Z,99719.86
2019-03-29T08:46:15.940Z,99718.55
2019-03-29T08:48:45.572Z,99722.05
2019-03-29T08:51:15.231Z,99721.16
2019-03-29T08:53:44.860Z,99722.98
2019-03-29T08:56:14.952Z,99720.48
2019-03-29T08:58:46.500Z,99713.58
2019-03-29T09:01:19.190Z,99710.05
2019-03-29T09:04:01.443Z,99710.20
2019-03-29T09:06:19.530Z,99705.28
2019-03-29T09:08:49.211Z,99704.08
2019-03-29T09:11:18.847Z,99699.49
2019-03-29T09:13:48.503Z,99696.23
2019-03-29T09:16:18.278Z,99696.23
2019-03-29T09:18:48.004Z,99699.39
2019-03-29T09:21:17.632Z,99694.51
2019-03-29T09:23:47.722Z,99699.17
2019-03-29T09:26:17.346Z,99693.69
2019-03-29T09:28:46.997Z,99690.42
2019-03-29T09:31:16.630Z,99686.44
2019-03-29T09:33:46.308Z,99680.01
2019-03-29T09:36:16.007Z,99682.92
2019-03-29T09:38:45.703Z,99680.19
2019-03-29T09:41:15.493Z,99678.07
2019-03-29T09:43:45.116Z,99680.80
2019-03-29T09:46:14.774Z,99669.91
2019-03-29T09:48:44.482Z,99668.97
2019-03-29T09:51:14.121Z,99669.70
2019-03-29T09:53:43.762Z,99665.98
2019-03-29T09:56:13.407Z,99657.58
2019-03-29T09:58:45.048Z,99659.16
2019-03-29T10:01:14.437Z,99658.02
2019-03-29T10:03:44.103Z,99658.60
2019-03-29T10:06:15.430Z,99656.38
2019-03-29T10:08:45.255Z,99651.45
2019-03-29T10:11:15.241Z,99646.27
2019-03-29T10:13:44.868Z,99649.94
2019-03-29T10:16:14.550Z,99650.31
2019-03-29T10:18:44.220Z,99644.66
2019-03-29T10:21:16.970Z,99646.51
2019-03-29T10:23:45.220Z,99642.09
2019-03-29T10:26:14.845Z,99640.36
2019-03-29T10:28:44.559Z,99638.20
2019-03-29T10:31:14.182Z,99627.11
2019-03-29T10:33:43.833Z,99624.42
2019-03-29T10:36:13.452Z,99622.90
2019-03-29T10:38:43.100Z,99629.08
2019-03-29T10:41:12.725Z,99618.28
2019-03-29T10:43:42.380Z,99611.94
2019-03-29T10:46:12.073Z,99616.83
2019-03-29T10:48:41.718Z,99613.80
2019-03-29T10:51:11.340Z,99608.66
2019-03-29T10:53:41.013Z,99597.27
2019-03-29T10:56:10.640Z,99606.15
2019-03-29T10:58:40.261Z,99593.67
2019-03-29T11:01:09.978Z,99597.51
2019-03-29T11:03:39.595Z,99590.24
2019-03-29T11:06:09.255Z,99598.89
2019-03-29T11:08:38.934Z,99598.31
2019-03-29T11:11:08.587Z,99591.88
2019-03-29T11:13:41.037Z,99584.93
2019-03-29T11:16:09.650Z,99589.15
2019-03-29T11:18:39.289Z,99600.43
2019-03-29T11:21:09.076Z,99600.20
2019-03-29T11:23:38.689Z,99599.28
2019-03-29T11:26:08.341Z,99596.84
2019-03-29T11:28:37.969Z,99588.39
2019-03-29T11:31:07.761Z,99596.90
2019-03-29T11:33:37.380Z,99588.16
2019-03-29T11:36:07.074Z,99579.27
2019-03-29T11:38:36.747Z,99585.33
2019-03-29T11:41:06.371Z,99590.11
2019-03-29T11:43:36.032Z,99589.29
2019-03-29T11:46:06.665Z,99590.63
2019-03-29T11:48:36.303Z,99583.10
2019-03-29T11:51:18.587Z,99585.08
2019-03-29T11:53:37.301Z,99575.12
2019-03-29T11:56:06.983Z,99575.93
2019-03-29T11:58:36.701Z,99570.59
2019-03-29T12:01:06.400Z,99567.34
2019-03-29T12:03:36.021Z,99565.87
2019-03-29T12:06:05.907Z,99565.20
2019-03-29T12:08:35.514Z,99547.27
2019-03-29T12:11:06.012Z,99543.59
2019-03-29T12:13:41.348Z,99543.37
2019-03-29T12:16:07.457Z,99545.64
2019-03-29T12:18:37.109Z,99529.27
2019-03-29T12:21:06.762Z,99534.92
2019-03-29T12:23:36.386Z,99527.13
2019-03-29T12:26:06.172Z,99523.94
2019-03-29T12:28:35.861Z,99514.55
2019-03-29T12:31:05.854Z,99515.98
2019-03-29T12:33:35.481Z,99519.79
2019-03-29T12:36:05.134Z,99514.95
2019-03-29T12:38:34.761Z,99505.77
2019-03-29T12:41:04.406Z,99506.86
2019-03-29T12:43:34.024Z,99502.27
2019-03-29T12:46:03.723Z,99501.23
2019-03-29T12:48:33.371Z,99492.56
2019-03-29T12:51:02.988Z,99492.83
2019-03-29T12:53:32.637Z,99489.59
2019-03-29T12:56:02.258Z,99489.82
2019-03-29T12:58:31.912Z,99483.78
2019-03-29T13:01:01.537Z,99482.68
2019-03-29T13:03:31.181Z,99480.52
2019-03-29T13:06:00.801Z,99483.42
2019-03-29T13:08:30.451Z,99477.63
2019-03-29T13:11:00.276Z,99472.31
2019-03-29T13:13:29.923Z,99467.09
2019-03-29T13:15:59.541Z,99465.51
2019-03-29T13:18:29.269Z,99461.55
2019-03-29T13:20:58.903Z,99452.87
2019-03-29T13:23:28.516Z,99455.45
2019-03-29T13:25:58.163Z,99452.09
2019-03-29T13:28:27.850Z,99452.09
2019-03-29T13:30:57.580Z,99443.14
2019-03-29T13:33:27.211Z,99431.11
2019-03-29T13:35:56.919Z,99437.16
2019-03-29T13:38:26.541Z,99438.53
2019-03-29T13:40:56.185Z,99428.80
2019-03-29T13:43:25.813Z,99425.62
2019-03-29T13:45:55.481Z,99426.83
2019-03-29T13:48:25.099Z,99419.45
2019-03-29T13:50:55.238Z,99412.09
2019-03-29T13:53:24.862Z,99418.31
2019-03-29T13:55:54.549Z,99419.88
2019-03-29T13:58:24.215Z,99411.81
2019-03-29T14:00:53.914Z,99408.27
2019-03-29T14:03:23.572Z,99394.23
2019-03-29T14:05:53.198Z,99395.89
2019-03-29T14:08:22.846Z,99401.07
2019-03-29T14:10:52.475Z,99390.91
2019-03-29T14:13:22.204Z,99391.75
2019-03-29T14:15:51.831Z,99394.13
2019-03-29T14:18:21.503Z,99391.77
2019-03-29T14:20:51.134Z,99384.63
2019-03-29T14:23:20.764Z,99376.52
2019-03-29T14:25:50.416Z,99379.56
2019-03-29T14:28:20.043Z,99387.54
2019-03-29T14:30:49.829Z,99380.93
2019-03-29T14:33:19.462Z,99375.17
2019-03-29T14:35:49.108Z,99371.62
2019-03-29T14:38:18.728Z,99366.88
2019-03-29T14:40:48.370Z,99358.31
2019-03-29T14:43:17.991Z,99355.84
2019-03-29T14:45:47.713Z,99349.48
2019-03-29T14:48:17.446Z,99351.45
2019-03-29T14:50:47.070Z,99334.12
2019-03-29T14:53:16.695Z,99332.56
2019-03-29T14:55:46.359Z,99333.62
2019-03-29T14:58:15.985Z,99329.25
2019-03-29T15:00:48.581Z,99327.95
2019-03-29T15:03:17.894Z,99319.06
2019-03-29T15:05:47.892Z,99322.23
2019-03-29T15:08:17.673Z,99321.31
2019-03-29T15:10:47.371Z,99313.66
2019-03-29T15:13:17.040Z,99308.08
2019-03-29T15:15:46.680Z,99308.86
2019-03-29T15:18:16.322Z,99308.17
2019-03-29T15:20:53.386Z,99303.45
2019-03-29T15:23:17.349Z,99295.70
2019-03-29T15:25:46.979Z,99301.09
2019-03-29T15:28:16.618Z,99294.80
2019-03-29T15:30:46.259Z,99293.19
2019-03-29T15:33:15.924Z,99292.03
2019-03-29T15:35:45.616Z,99288.94
2019-03-29T15:38:15.237Z,99285.80
2019-03-29T15:40:44.892Z,99271.09
2019-03-29T15:43:14.588Z,99276.16
2019-03-29T15:45:44.243Z,99269.95
2019-03-29T15:48:13.860Z,99270.77
2019-03-29T15:50:43.504Z,99274.86
2019-03-29T15:53:13.135Z,99274.46
2019-03-29T15:55:42.788Z,99272.97
2019-03-29T15:58:12.418Z,99262.83
2019-03-29T16:00:42.115Z,99261.35
2019-03-29T16:03:11.773Z,99268.06
2019-03-29T16:05:41.405Z,99263.34
2019-03-29T16:08:11.057Z,99262.47
2019-03-29T16:10:41.409Z,99260.62
2019-03-29T16:13:11.309Z,99258.97
2019-03-29T16:15:40.937Z,99256.73
2019-03-29T16:18:10.586Z,99255.53
2019-03-29T16:20:40.284Z,99255.59
2019-03-29T16:23:09.997Z,99254.67
2019-03-29T16:25:39.693Z,99254.02
2019-03-29T16:28:09.351Z,99255.98
2019-03-29T16:30:38.975Z,99264.03
2019-03-29T16:33:08.711Z,99264.16
2019-03-29T16:35:38.335Z,99272.13
2019-03-29T16:38:07.983Z,99276.70
2019-03-29T16:40:37.616Z,99277.89
2019-03-29T16:43:07.273Z,99276.52
2019-03-29T16:45:47.341Z,99277.16
2019-03-29T16:48:08.328Z,99280.05
2019-03-29T16:50:38.059Z,99285.25
2019-03-29T16:53:07.821Z,99280.60
2019-03-29T16:55:37.467Z,99293.58
2019-03-29T16:58:07.091Z,99297.48
2019-03-29T17:00:36.818Z,99297.84
2019-03-29T17:03:06.445Z,99298.09
2019-03-29T17:05:36.110Z,99292.48
2019-03-29T17:08:05.822Z,99297.90
2019-03-29T17:10:35.532Z,99291.68
2019-03-29T17:13:05.223Z,99299.55
2019-03-29T17:15:35.068Z,99298.17
2019-03-29T17:18:04.779Z,99293.05
2019-03-29T17:20:34.414Z,99290.56
2019-03-29T17:23:04.059Z,99299.20
2019-03-29T17:25:33.685Z,99302.19
2019-03-29T17:28:03.336Z,99306.23
2019-03-29T17:30:43.123Z,99304.58
2019-03-29T17:33:12.762Z,99300.20
2019-03-29T17:35:42.376Z,99300.19
2019-03-29T17:38:12.026Z,99300.95
2019-03-29T17:40:41.653Z,99302.55
2019-03-29T17:43:11.331Z,99302.77
2019-03-29T17:45:41.378Z,99302.23
2019-03-29T17:48:11.000Z,99296.81
2019-03-29T17:50:40.662Z,99306.73
2019-03-29T17:53:10.361Z,99305.86
2019-03-29T17:55:40.005Z,99311.22
2019-03-29T17:58:09.635Z,99306.03
2019-03-29T18:00:39.281Z,99312.95
2019-03-29T18:03:08.970Z,99318.23
2019-03-29T18:05:38.627Z,99317.65
2019-03-29T18:08:08.255Z,99322.66
2019-03-29T18:10:37.906Z,99319.08
2019-03-29T18:13:07.530Z,99322.80
2019-03-29T18:15:37.182Z,99324.39
2019-03-29T18:18:06.887Z,99319.70
2019-03-29T18:20:36.585Z,99328.72
2019-03-29T18:23:06.228Z,99324.13
2019-03-29T18:25:35.857Z,99326.00
2019-03-29T18:28:05.640Z,99331.60
2019-03-29T18:30:40.973Z,99341.27
2019-03-29T18:33:10.697Z,99332.50
2019-03-29T18:35:40.456Z,99339.83
2019-03-29T18:38:10.342Z,99339.09
2019-03-29T18:40:40.043Z,99339.71
2019-03-29T18:43:09.694Z,99337.75
2019-03-29T18:45:41.660Z,99341.37
2019-03-29T18:48:10.763Z,99349.58
2019-03-29T18:50:40.390Z,99344.03
2019-03-29T18:53:10.021Z,99343.02
2019-03-29T18:55:39.735Z,99347.28
2019-03-29T18:58:09.364Z,99345.95
2019-03-29T19:00:39.013Z,99347.38
2019-03-29T19:03:11.699Z,99348.24
2019-03-29T19:05:40.009Z,99348.05
2019-03-29T19:08:09.702Z,99352.16
2019-03-29T19:10:39.420Z,99352.04
2019-03-29T19:13:09.046Z,99352.63
2019-03-29T19:15:38.698Z,99350.67
2019-03-29T19:18:08.458Z,99352.82
2019-03-29T19:20:38.079Z,99350.44
2019-03-29T19:23:07.732Z,99356.47
2019-03-29T19:25:37.351Z,99350.55
2019-03-29T19:28:07.006Z,99356.14
2019-03-29T19:30:36.634Z,99361.00
2019-03-29T19:33:06.288Z,99357.45
2019-03-29T19:35:36.383Z,99354.94
2019-03-29T19:38:06.037Z,99357.96
2019-03-29T19:40:35.808Z,99349.81
2019-03-29T19:43:05.530Z,99355.66
2019-03-29T19:45:35.232Z,99352.48
2019-03-29T19:48:04.952Z,99362.35
2019-03-29T19:50:34.579Z,99365.39
2019-03-29T19:53:04.304Z,99363.05
2019-03-29T19:55:34.016Z,99365.01
2019-03-29T19:58:03.747Z,99359.34
2019-03-29T20:00:39.176Z,99360.63
2019-03-29T20:03:09.280Z,99363.41
2019-03-29T20:05:40.335Z,99359.73
2019-03-29T20:08:10.039Z,99362.17
2019-03-29T20:10:40.136Z,99363.20
2019-03-29T20:13:09.967Z,99362.23
2019-03-29T20:15:39.693Z,99365.09
2019-03-29T20:18:09.390Z,99368.02
2019-03-29T20:20:39.050Z,99371.02
2019-03-29T20:23:08.816Z,99374.21
2019-03-29T20:25:38.718Z,99375.39
2019-03-29T20:28:08.446Z,99378.48
2019-03-29T20:30:38.071Z,99373.74
2019-03-29T20:33:07.718Z,99376.08
2019-03-29T20:35:37.337Z,99380.81
2019-03-29T20:38:07.144Z,99376.09
2019-03-29T20:40:36.843Z,99375.00
2019-03-29T20:43:06.523Z,99376.23
2019-03-29T20:45:36.218Z,99377.33
2019-03-29T20:48:05.992Z,99379.20
2019-03-29T20:50:35.717Z,99380.81
2019-03-29T20:53:05.484Z,99373.02
2019-03-29T20:55:35.206Z,99375.34
2019-03-29T20:58:04.902Z,99379.28
2019-03-29T21:00:34.621Z,99376.20
2019-03-29T21:03:04.242Z,99369.08
2019-03-29T21:05:33.872Z,99376.99
2019-03-29T21:08:03.532Z,99373.12
2019-03-29T21:10:33.167Z,99369.23
2019-03-29T21:13:02.825Z,99368.64
2019-03-29T21:15:32.452Z,99371.89
2019-03-29T21:18:02.109Z,99368.64
2019-03-29T21:20:31.803Z,99368.20
2019-03-29T21:23:01.525Z,99366.47
2019-03-29T21:25:31.156Z,99359.59
2019-03-29T21:28:00.816Z,99366.04
2019-03-29T21:30:30.506Z,99366.48
2019-03-29T21:33:00.139Z,99364.73
2019-03-29T21:35:29.794Z,99364.30
2019-03-29T21:37:59.423Z,99369.06
2019-03-29T21:40:29.070Z,99364.85
2019-03-29T21:43:01.656Z,99356.09
2019-03-29T21:45:30.092Z,99356.17
2019-03-29T21:48:09.945Z,99361.00
2019-03-29T21:50:31.224Z,99359.28
2019-03-29T21:53:00.853Z,99356.30
2019-03-29T21:55:30.508Z,99354.76
2019-03-29T21:58:00.146Z,99348.00
2019-03-29T22:00:29.797Z,99353.66
2019-03-29T22:02:59.425Z,99344.36
2019-03-29T22:05:29.078Z,99345.67
2019-03-29T22:07:58.709Z,99350.53
2019-03-29T22:10:28.368Z,99344.28
2019-03-29T22:12:57.995Z,99344.95
2019-03-29T22:15:27.626Z,99342.45
2019-03-29T22:17:57.284Z,99339.17
2019-03-29T22:20:26.909Z,99332.20
2019-03-29T22:22:56.562Z,99327.66
2019-03-29T22:25:26.250Z,99332.70
2019-03-29T22:27:55.905Z,99332.41
2019-03-29T22:32:57.938Z,99328.63
2019-03-29T22:35:27.823Z,99333.88
2019-03-29T22:37:57.476Z,99334.78
2019-03-29T22:40:27.097Z,99336.35
2019-03-29T22:42:56.752Z,99335.81
2019-03-29T22:45:26.379Z,99334.72
2019-03-29T22:47:56.028Z,99332.32
2019-03-29T22:50:25.655Z,99332.92
2019-03-29T22:52:55.283Z,99339.66
2019-03-29T22:55:24.926Z,99343.98
2019-03-29T22:57:55.316Z,99337.46
2019-03-29T23:00:36.807Z,99332.76
2019-03-29T23:03:08.005Z,99334.80
2019-03-29T23:05:38.089Z,99333.36
2019-03-29T23:08:07.785Z,99341.75
2019-03-29T23:10:37.425Z,99342.53
2019-03-29T23:13:07.123Z,99341.94
2019-03-29T23:15:37.549Z,99339.04
2019-03-29T23:18:07.167Z,99342.56
2019-03-29T23:20:36.785Z,99340.75
2019-03-29T23:23:06.431Z,99347.19
2019-03-29T23:25:36.116Z,99340.55
2019-03-29T23:28:05.759Z,99336.66
2019-03-29T23:30:35.423Z,99335.09
2019-03-29T23:33:05.246Z,99335.52
2019-03-29T23:35:34.865Z,99323.13
2019-03-29T23:38:04.645Z,99329.77
2019-03-29T23:40:34.261Z,99326.13
2019-03-29T23:43:03.913Z,99325.45
2019-03-29T23:45:34.349Z,99334.27
2019-03-29T23:48:03.995Z,99325.20
2019-03-29T23:50:33.606Z,99327.12
2019-03-29T23:53:03.255Z,99330.01
2019-03-29T23:55:32.872Z,99327.36
2019-03-29T23:58:02.516Z,99330.59
